CheckWX is a tool to help pilots better visualize weather data.  It is not intended as a substitute for an official pre-flight weather briefing.

21:03:25 UTC

EDDC METAR
Dresden Airport
Dresden, Germany
Current

13 mins ago

EDDC 232050Z VRB01KT CAVOK 14/00 Q1017
Observed
May-23 @ 20:50 UTC
Wind
  • Variable at 1 KTS
Visibility
10,000+ meters
Flight Rules
VFR
Cloud Levels
  • Clear skies
Temperature
14°C / 57°F
Dewpoint
C / 32°F
Humidity
39%
Altimeter
30.03" Hg
Pressure
1016.92 hPa
Previous

43 mins ago

EDDC 232020Z VRB01KT CAVOK 14/M00 Q1017
Observed
May-23 @ 20:20 UTC
Wind
  • Variable at 1 KTS
Visibility
10,000+ meters
Flight Rules
VFR
Cloud Levels
  • Clear skies
Temperature
14°C / 57°F
Dewpoint
C / 32°F
Humidity
39%
Altimeter
30.03" Hg
Pressure
1016.92 hPa
Previous

2 hours ago

EDDC 231920Z 00000KT CAVOK 15/M00 Q1017 NOSIG
Observed
May-23 @ 19:20 UTC
Visibility
10,000+ meters
Flight Rules
VFR
Cloud Levels
  • Clear skies
Temperature
15°C / 59°F
Dewpoint
C / 32°F
Humidity
36%
Altimeter
30.03" Hg
Pressure
1016.92 hPa